createdAt,value
2019-02-10T00:01:20.082Z,3.57
2019-02-10T00:03:49.490Z,2.40
2019-02-10T00:06:24.646Z,2.73
2019-02-10T00:08:49.839Z,4.60
2019-02-10T00:11:19.244Z,2.17
2019-02-10T00:13:48.623Z,1.63
2019-02-10T00:16:19.473Z,5.30
2019-02-10T00:18:48.594Z,2.70
2019-02-10T00:21:17.715Z,2.23
2019-02-10T00:23:47.455Z,2.60
2019-02-10T00:26:16.555Z,3.23
2019-02-10T00:28:45.693Z,2.20
2019-02-10T00:31:14.878Z,2.23
2019-02-10T00:33:44.277Z,2.90
2019-02-10T00:36:13.391Z,2.63
2019-02-10T00:38:42.511Z,3.10
2019-02-10T00:41:11.626Z,3.00
2019-02-10T00:43:40.785Z,2.67
2019-02-10T00:46:10.124Z,2.53
2019-02-10T00:48:39.373Z,2.23
2019-02-10T00:51:08.480Z,2.80
2019-02-10T00:53:37.683Z,2.87
2019-02-10T00:56:06.897Z,2.80
2019-02-10T00:58:36.021Z,2.73
2019-02-10T01:01:05.187Z,2.77
2019-02-10T01:03:34.300Z,2.67
2019-02-10T01:06:03.626Z,3.03
2019-02-10T01:08:32.731Z,3.67
2019-02-10T01:11:02.114Z,2.83
2019-02-10T01:13:32.070Z,3.53
2019-02-10T01:16:01.186Z,2.97
2019-02-10T01:18:30.667Z,2.33
2019-02-10T01:20:59.875Z,2.73
2019-02-10T01:23:29.010Z,2.27
2019-02-10T01:25:58.122Z,2.77
2019-02-10T01:28:27.224Z,3.60
2019-02-10T01:30:56.524Z,3.17
2019-02-10T01:33:25.631Z,2.97
2019-02-10T01:35:54.783Z,3.00
2019-02-10T01:38:24.171Z,2.53
2019-02-10T01:40:53.297Z,2.93
2019-02-10T01:43:22.408Z,2.90
2019-02-10T01:45:51.602Z,3.80
2019-02-10T01:48:20.710Z,2.87
2019-02-10T01:50:49.937Z,1.87
2019-02-10T01:53:19.083Z,1.83
2019-02-10T01:55:48.485Z,2.00
2019-02-10T01:58:17.672Z,2.90
2019-02-10T02:00:46.792Z,2.40
2019-02-10T02:03:16.214Z,2.73
2019-02-10T02:05:45.808Z,2.37
2019-02-10T02:08:14.904Z,3.33
2019-02-10T02:10:44.051Z,2.40
2019-02-10T02:13:13.212Z,2.33
2019-02-10T02:15:42.311Z,2.30
2019-02-10T02:18:11.437Z,2.37
2019-02-10T02:20:40.619Z,2.43
2019-02-10T02:23:09.739Z,2.67
2019-02-10T02:25:39.113Z,2.00
2019-02-10T02:28:08.211Z,2.20
2019-02-10T02:30:37.439Z,1.70
2019-02-10T02:33:06.744Z,2.23
2019-02-10T02:35:36.141Z,1.87
2019-02-10T02:38:05.203Z,2.00
2019-02-10T02:40:34.284Z,2.70
2019-02-10T02:43:03.341Z,2.10
2019-02-10T02:45:32.416Z,2.47
2019-02-10T02:48:01.469Z,2.33
2019-02-10T02:50:30.556Z,2.17
2019-02-10T02:52:59.685Z,2.83
2019-02-10T02:55:29.017Z,2.47
2019-02-10T02:57:58.070Z,2.50
2019-02-10T03:00:27.172Z,2.70
2019-02-10T03:02:56.238Z,2.20
2019-02-10T03:05:25.334Z,2.43
2019-02-10T03:07:54.325Z,2.40
2019-02-10T03:10:23.408Z,3.00
2019-02-10T03:12:52.549Z,3.10
2019-02-10T03:15:21.641Z,3.33
2019-02-10T03:17:50.992Z,3.13
2019-02-10T03:20:20.591Z,3.50
2019-02-10T03:22:49.657Z,2.87
2019-02-10T03:25:18.993Z,2.30
2019-02-10T03:27:48.030Z,2.03
2019-02-10T03:30:17.141Z,2.93
2019-02-10T03:32:46.213Z,2.23
2019-02-10T03:35:15.359Z,2.43
2019-02-10T03:37:44.746Z,2.20
2019-02-10T03:40:13.878Z,3.10
2019-02-10T03:42:42.957Z,2.07
2019-02-10T03:45:12.153Z,2.33
2019-02-10T03:47:41.527Z,2.67
2019-02-10T03:50:10.616Z,2.50
2019-02-10T03:52:39.694Z,2.20
2019-02-10T03:55:09.020Z,2.03
2019-02-10T03:57:38.108Z,2.53
2019-02-10T04:00:07.413Z,2.57
2019-02-10T04:02:36.827Z,2.23
2019-02-10T04:05:06.425Z,2.10
2019-02-10T04:07:36.518Z,2.43
2019-02-10T04:10:06.592Z,2.20
2019-02-10T04:12:35.955Z,1.90
2019-02-10T04:15:05.399Z,2.23
2019-02-10T04:17:34.483Z,2.03
2019-02-10T04:20:03.666Z,2.50
2019-02-10T04:22:32.923Z,2.40
2019-02-10T04:25:01.980Z,2.13
2019-02-10T04:27:31.291Z,2.07
2019-02-10T04:30:00.364Z,2.00
2019-02-10T04:32:29.440Z,1.77
2019-02-10T04:34:58.508Z,2.47
2019-02-10T04:37:27.594Z,2.50
2019-02-10T04:39:56.645Z,2.20
2019-02-10T04:42:26.281Z,1.80
2019-02-10T04:44:55.660Z,2.07
2019-02-10T04:47:24.978Z,2.60
2019-02-10T04:49:54.031Z,2.37
2019-02-10T04:52:23.383Z,2.30
2019-02-10T04:54:52.438Z,2.07
2019-02-10T04:57:21.792Z,2.07
2019-02-10T04:59:50.876Z,2.83
2019-02-10T05:02:19.966Z,2.33
2019-02-10T05:04:48.965Z,5.03
2019-02-10T05:07:18.057Z,2.43
2019-02-10T05:09:47.903Z,2.23
2019-02-10T05:12:16.999Z,2.87
2019-02-10T05:14:46.058Z,2.33
2019-02-10T05:17:15.168Z,2.00
2019-02-10T05:19:44.502Z,2.80
2019-02-10T05:22:13.579Z,2.33
2019-02-10T05:24:42.614Z,2.10
2019-02-10T05:27:11.702Z,2.00
2019-02-10T05:29:41.268Z,2.00
2019-02-10T05:32:10.338Z,1.70
2019-02-10T05:34:39.486Z,1.90
2019-02-10T05:37:08.628Z,2.10
2019-02-10T05:39:37.692Z,1.80
2019-02-10T05:42:06.840Z,2.07
2019-02-10T05:44:36.072Z,1.33
2019-02-10T05:47:05.145Z,2.20
2019-02-10T05:49:34.223Z,1.70
2019-02-10T05:52:03.338Z,2.07
2019-02-10T05:54:32.417Z,2.60
2019-02-10T05:57:01.485Z,1.80
2019-02-10T05:59:30.795Z,1.40
2019-02-10T06:02:07.576Z,1.67
2019-02-10T06:04:39.825Z,1.70
2019-02-10T06:07:16.453Z,1.60
2019-02-10T06:09:45.365Z,2.17
2019-02-10T06:12:14.968Z,1.90
2019-02-10T06:14:44.087Z,1.50
2019-02-10T06:17:13.422Z,1.63
2019-02-10T06:19:42.760Z,1.67
2019-02-10T06:22:11.850Z,1.30
2019-02-10T06:24:41.252Z,1.90
2019-02-10T06:27:10.332Z,1.53
2019-02-10T06:29:40.214Z,1.27
2019-02-10T06:32:09.315Z,1.53
2019-02-10T06:34:38.298Z,1.00
2019-02-10T06:37:07.416Z,1.37
2019-02-10T06:39:36.479Z,1.40
2019-02-10T06:42:05.835Z,0.90
2019-02-10T06:44:34.890Z,1.10
2019-02-10T06:47:04.276Z,1.00
2019-02-10T06:49:33.568Z,1.00
2019-02-10T06:52:02.972Z,1.43
2019-02-10T06:54:32.035Z,1.00
2019-02-10T06:57:01.398Z,1.20
2019-02-10T06:59:45.069Z,1.40
2019-02-10T07:02:31.336Z,1.00
2019-02-10T07:05:00.691Z,1.40
2019-02-10T07:07:29.997Z,1.30
2019-02-10T07:09:59.079Z,1.03
2019-02-10T07:12:47.647Z,1.40
2019-02-10T07:15:52.017Z,2.03
2019-02-10T07:18:56.620Z,2.60
2019-02-10T07:21:28.863Z,2.10
2019-02-10T07:23:59.694Z,2.80
2019-02-10T07:26:53.772Z,2.47
2019-02-10T07:29:51.570Z,1.63
2019-02-10T07:32:25.481Z,1.53
2019-02-10T07:35:26.166Z,0.97
2019-02-10T07:38:08.889Z,1.30
2019-02-10T07:41:16.840Z,0.60
2019-02-10T07:44:22.698Z,0.80
2019-02-10T07:47:34.539Z,1.13
2019-02-10T07:50:49.147Z,1.10
2019-02-10T07:53:45.263Z,0.90
2019-02-10T07:56:42.043Z,0.70
2019-02-10T07:59:51.032Z,1.00
2019-02-10T08:03:01.314Z,1.10
2019-02-10T08:05:59.795Z,0.90
2019-02-10T08:09:09.577Z,1.00
2019-02-10T08:12:37.017Z,1.30
2019-02-10T08:15:34.036Z,2.60
2019-02-10T08:18:33.107Z,1.50
2019-02-10T08:21:42.913Z,0.93
2019-02-10T08:24:37.735Z,2.63
2019-02-10T08:27:27.764Z,1.50
2019-02-10T08:30:34.433Z,2.20
2019-02-10T08:33:46.703Z,0.83
2019-02-10T08:36:36.184Z,0.97
2019-02-10T08:40:01.556Z,1.00
2019-02-10T08:43:12.188Z,0.80
2019-02-10T08:46:22.992Z,1.07
2019-02-10T08:49:18.661Z,1.10
2019-02-10T08:52:27.758Z,1.20
2019-02-10T08:54:58.057Z,0.90
2019-02-10T08:57:27.608Z,1.00
2019-02-10T08:59:56.687Z,1.10
2019-02-10T09:02:25.820Z,0.70
2019-02-10T09:04:55.216Z,1.30
2019-02-10T09:07:24.714Z,1.10
2019-02-10T09:09:54.435Z,1.10
2019-02-10T09:12:23.917Z,0.80
2019-02-10T09:14:55.506Z,1.20
2019-02-10T09:17:26.055Z,0.80
2019-02-10T09:19:55.942Z,1.30
2019-02-10T09:22:25.679Z,0.80
2019-02-10T09:24:55.480Z,1.03
2019-02-10T09:27:25.211Z,0.80
2019-02-10T09:29:54.758Z,0.83
2019-02-10T09:32:24.547Z,1.23
2019-02-10T09:34:53.930Z,1.03
2019-02-10T09:37:24.047Z,1.30
2019-02-10T09:39:54.096Z,1.20
2019-02-10T09:42:23.463Z,1.10
2019-02-10T09:44:53.082Z,1.33
2019-02-10T09:47:22.806Z,0.90
2019-02-10T09:49:52.452Z,0.73
2019-02-10T09:52:21.582Z,1.10
2019-02-10T09:54:50.725Z,3.33
2019-02-10T09:57:19.799Z,10.63
2019-02-10T09:59:49.134Z,4.27
2019-02-10T10:02:18.220Z,3.53
2019-02-10T10:04:47.386Z,2.20
2019-02-10T10:07:16.733Z,1.60
2019-02-10T10:09:45.792Z,1.57
2019-02-10T10:12:15.130Z,1.20
2019-02-10T10:14:44.191Z,2.70
2019-02-10T10:17:13.288Z,1.27
2019-02-10T10:19:42.975Z,1.10
2019-02-10T10:22:12.356Z,1.13
2019-02-10T10:24:41.442Z,1.33
2019-02-10T10:27:10.677Z,1.07
2019-02-10T10:29:40.117Z,1.60
2019-02-10T10:32:09.187Z,1.57
2019-02-10T10:34:38.537Z,1.60
2019-02-10T10:37:07.625Z,1.30
2019-02-10T10:39:37.086Z,1.50
2019-02-10T10:42:06.378Z,1.87
2019-02-10T10:44:35.539Z,1.63
2019-02-10T10:47:04.622Z,1.57
2019-02-10T10:49:34.384Z,1.70
2019-02-10T10:52:03.515Z,1.97
2019-02-10T10:54:32.751Z,1.30
2019-02-10T10:57:01.761Z,1.70
2019-02-10T10:59:30.739Z,3.73
2019-02-10T11:01:59.779Z,2.00
2019-02-10T11:04:28.787Z,2.50
2019-02-10T11:06:57.827Z,2.70
2019-02-10T11:09:26.908Z,3.10
2019-02-10T11:11:56.035Z,3.73
2019-02-10T11:14:25.083Z,6.00
2019-02-10T11:16:54.463Z,6.90
2019-02-10T11:19:23.822Z,3.67
2019-02-10T11:21:53.127Z,7.53
2019-02-10T11:24:28.483Z,1.90
2019-02-10T11:26:53.238Z,1.97
2019-02-10T11:29:22.307Z,2.17
2019-02-10T11:31:51.386Z,1.67
2019-02-10T11:34:20.666Z,1.73
2019-02-10T11:36:49.710Z,1.37
2019-02-10T11:39:19.100Z,2.13
2019-02-10T11:41:48.121Z,2.23
2019-02-10T11:44:17.260Z,1.63
2019-02-10T11:46:46.387Z,1.90
2019-02-10T11:49:15.690Z,2.33
2019-02-10T11:51:44.742Z,1.73
2019-02-10T11:54:14.063Z,2.30
2019-02-10T11:56:43.358Z,1.57
2019-02-10T11:59:14.097Z,1.70
2019-02-10T12:01:43.758Z,1.50
2019-02-10T12:04:12.869Z,1.47
2019-02-10T12:06:41.823Z,1.40
2019-02-10T12:09:10.868Z,1.67
2019-02-10T12:11:40.183Z,1.70
2019-02-10T12:14:09.264Z,1.70
2019-02-10T12:16:38.750Z,2.03
2019-02-10T12:19:07.815Z,1.90
2019-02-10T12:21:37.726Z,1.77
2019-02-10T12:24:06.836Z,1.90
2019-02-10T12:26:35.883Z,1.50
2019-02-10T12:29:04.993Z,1.63
2019-02-10T12:31:34.696Z,1.63
2019-02-10T12:34:03.994Z,1.90
2019-02-10T12:36:33.330Z,2.77
2019-02-10T12:39:02.756Z,3.00
2019-02-10T12:41:31.967Z,3.33
2019-02-10T12:44:01.265Z,5.10
2019-02-10T12:46:30.564Z,2.13
2019-02-10T12:48:59.664Z,4.30
2019-02-10T12:51:28.768Z,3.30
2019-02-10T12:53:58.115Z,3.63
2019-02-10T12:56:27.163Z,4.93
2019-02-10T12:58:56.503Z,1.73
2019-02-10T13:01:25.575Z,2.70
2019-02-10T13:03:54.897Z,1.90
2019-02-10T13:06:23.966Z,2.60
2019-02-10T13:08:52.994Z,2.17
2019-02-10T13:11:23.395Z,2.67
2019-02-10T13:13:53.277Z,2.40
2019-02-10T13:16:22.671Z,2.20
2019-02-10T13:18:51.733Z,1.37
2019-02-10T13:21:20.868Z,2.33
2019-02-10T13:23:49.962Z,1.60
2019-02-10T13:26:19.254Z,1.50
2019-02-10T13:28:49.435Z,1.50
2019-02-10T13:31:18.876Z,2.57
2019-02-10T13:33:47.895Z,1.63
2019-02-10T13:36:17.399Z,1.23
2019-02-10T13:38:46.742Z,1.90
2019-02-10T13:41:16.117Z,2.23
2019-02-10T13:43:45.420Z,1.33
2019-02-10T13:46:14.516Z,1.60
2019-02-10T13:48:43.742Z,1.43
2019-02-10T13:51:12.779Z,1.40
2019-02-10T13:53:42.122Z,2.00
2019-02-10T13:56:11.440Z,1.80
2019-02-10T13:58:41.108Z,1.40
2019-02-10T14:01:10.487Z,1.40
2019-02-10T14:03:39.602Z,1.40
2019-02-10T14:06:08.961Z,1.10
2019-02-10T14:08:38.002Z,1.30
2019-02-10T14:11:07.115Z,1.20
2019-02-10T14:13:36.183Z,1.27
2019-02-10T14:16:05.307Z,0.90
2019-02-10T14:18:34.392Z,1.40
2019-02-10T14:21:03.479Z,1.20
2019-02-10T14:23:32.539Z,1.90
2019-02-10T14:26:01.715Z,1.40
2019-02-10T14:28:30.876Z,1.27
2019-02-10T14:30:59.983Z,1.37
2019-02-10T14:33:29.288Z,2.00
2019-02-10T14:35:58.423Z,1.90
2019-02-10T14:38:36.081Z,1.37
2019-02-10T14:40:58.748Z,1.60
2019-02-10T14:43:28.089Z,1.70
2019-02-10T14:45:57.200Z,1.47
2019-02-10T14:48:26.264Z,1.60
2019-02-10T14:50:55.619Z,1.43
2019-02-10T14:53:25.255Z,1.57
2019-02-10T14:55:54.442Z,1.57
2019-02-10T14:58:23.752Z,1.37
2019-02-10T15:00:53.119Z,1.93
2019-02-10T15:03:22.431Z,0.93
2019-02-10T15:05:51.552Z,0.67
2019-02-10T15:08:20.872Z,0.80
2019-02-10T15:10:50.221Z,0.67
2019-02-10T15:13:19.450Z,0.53
2019-02-10T15:15:49.698Z,0.63
2019-02-10T15:18:19.116Z,0.60
2019-02-10T15:20:48.163Z,0.63
2019-02-10T15:23:17.141Z,0.50
2019-02-10T15:25:46.486Z,0.60
2019-02-10T15:28:15.804Z,0.40
2019-02-10T15:30:45.244Z,0.40
2019-02-10T15:33:14.314Z,1.07
2019-02-10T15:35:43.480Z,0.53
2019-02-10T15:38:14.841Z,0.70
2019-02-10T15:40:49.811Z,0.40
2019-02-10T15:43:15.319Z,0.70
2019-02-10T15:45:44.456Z,0.50
2019-02-10T15:48:13.907Z,0.60
2019-02-10T15:50:43.368Z,0.33
2019-02-10T15:53:12.703Z,0.40
2019-02-10T15:55:42.059Z,0.50
2019-02-10T15:58:11.107Z,0.30
2019-02-10T16:00:40.478Z,0.83
2019-02-10T16:03:09.788Z,0.30
2019-02-10T16:05:38.928Z,0.27
2019-02-10T16:08:08.573Z,0.40
2019-02-10T16:10:37.951Z,0.50
2019-02-10T16:13:06.938Z,0.50
2019-02-10T16:15:36.052Z,0.50
2019-02-10T16:18:05.111Z,0.33
2019-02-10T16:20:34.316Z,0.30
2019-02-10T16:23:03.366Z,0.33
2019-02-10T16:25:32.468Z,0.30
2019-02-10T16:28:01.910Z,0.40
2019-02-10T16:30:31.227Z,0.70
2019-02-10T16:33:00.347Z,0.40
2019-02-10T16:35:29.468Z,0.40
2019-02-10T16:37:58.847Z,0.50
2019-02-10T16:40:27.901Z,0.33
2019-02-10T16:42:57.011Z,0.53
2019-02-10T16:45:26.692Z,0.50
2019-02-10T16:47:55.867Z,0.50
2019-02-10T16:50:25.255Z,0.40
2019-02-10T16:52:54.368Z,0.90
2019-02-10T16:55:23.739Z,0.50
2019-02-10T16:57:54.531Z,0.40
2019-02-10T17:00:24.175Z,0.30
2019-02-10T17:02:53.271Z,0.20
2019-02-10T17:05:22.591Z,0.20
2019-02-10T17:07:51.779Z,0.20
2019-02-10T17:10:21.107Z,0.37
2019-02-10T17:12:50.223Z,0.30
2019-02-10T17:15:19.523Z,0.30
2019-02-10T17:17:48.883Z,0.30
2019-02-10T17:20:17.954Z,0.20
2019-02-10T17:22:47.054Z,0.20
2019-02-10T17:25:16.560Z,0.30
2019-02-10T17:27:45.997Z,0.47
2019-02-10T17:30:15.329Z,0.30
2019-02-10T17:32:49.399Z,0.60
2019-02-10T17:35:20.330Z,0.30
2019-02-10T17:37:50.022Z,0.40
2019-02-10T17:40:23.218Z,0.60
2019-02-10T17:42:53.374Z,0.40
2019-02-10T17:45:23.487Z,0.33
2019-02-10T17:47:53.248Z,0.40
2019-02-10T17:50:35.434Z,0.77
2019-02-10T17:53:05.193Z,0.40
2019-02-10T17:55:36.109Z,0.30
2019-02-10T17:58:07.589Z,0.20
2019-02-10T18:00:41.545Z,0.33
2019-02-10T18:03:10.981Z,0.30
2019-02-10T18:05:40.089Z,0.30
2019-02-10T18:08:11.156Z,0.20
2019-02-10T18:10:41.241Z,0.23
2019-02-10T18:13:12.018Z,0.20
2019-02-10T18:16:19.968Z,0.23
2019-02-10T18:19:14.187Z,0.50
2019-02-10T18:21:51.802Z,0.30
2019-02-10T18:24:39.870Z,0.20
2019-02-10T18:27:21.027Z,0.30
2019-02-10T18:30:11.470Z,0.33
2019-02-10T18:32:52.239Z,0.50
2019-02-10T18:35:58.686Z,0.50
2019-02-10T18:38:34.195Z,0.40
2019-02-10T18:41:40.778Z,0.20
2019-02-10T18:44:20.461Z,0.30
2019-02-10T18:46:58.648Z,0.37
2019-02-10T18:49:45.248Z,0.30
2019-02-10T18:52:36.436Z,0.40
2019-02-10T18:55:20.911Z,0.53
2019-02-10T18:58:00.092Z,0.40
2019-02-10T19:00:48.297Z,0.60
2019-02-10T19:03:26.996Z,0.40
2019-02-10T19:06:10.426Z,0.40
2019-02-10T19:09:03.416Z,0.40
2019-02-10T19:11:47.391Z,0.30
2019-02-10T19:14:44.517Z,0.50
2019-02-10T19:17:31.142Z,0.30
2019-02-10T19:20:18.591Z,0.47
2019-02-10T19:22:54.648Z,0.50
2019-02-10T19:25:40.798Z,0.60
2019-02-10T19:28:28.956Z,0.77
2019-02-10T19:31:24.001Z,0.30
2019-02-10T19:34:07.463Z,0.50
2019-02-10T19:36:55.859Z,0.40
2019-02-10T19:39:42.447Z,0.40
2019-02-10T19:42:28.088Z,0.40
2019-02-10T19:45:16.127Z,0.40
2019-02-10T19:47:56.284Z,0.40
2019-02-10T19:50:56.799Z,0.50
2019-02-10T19:53:48.368Z,0.30
2019-02-10T19:56:35.354Z,0.60
2019-02-10T19:59:38.732Z,0.40
2019-02-10T20:02:14.157Z,0.50
2019-02-10T20:05:07.741Z,0.30
2019-02-10T20:07:53.324Z,0.30
2019-02-10T20:11:02.084Z,0.30
2019-02-10T20:13:36.295Z,0.30
2019-02-10T20:16:31.067Z,0.20
2019-02-10T20:19:22.047Z,0.20
2019-02-10T20:22:01.097Z,0.30
2019-02-10T20:24:42.024Z,0.37
2019-02-10T20:27:27.880Z,0.30
2019-02-10T20:30:07.057Z,0.30
2019-02-10T20:32:46.724Z,0.30
2019-02-10T20:35:33.480Z,0.30
2019-02-10T20:38:24.614Z,0.40
2019-02-10T20:41:13.060Z,0.50
2019-02-10T20:44:00.200Z,0.50
2019-02-10T20:46:36.625Z,0.40
2019-02-10T20:49:16.462Z,0.40
2019-02-10T20:52:10.978Z,0.40
2019-02-10T20:54:51.820Z,0.40
2019-02-10T20:57:37.238Z,0.30
2019-02-10T21:00:13.735Z,0.30
2019-02-10T21:02:57.870Z,0.30
2019-02-10T21:05:47.084Z,0.30
2019-02-10T21:08:35.407Z,0.27
2019-02-10T21:11:12.759Z,0.60
2019-02-10T21:13:59.943Z,0.30
2019-02-10T21:16:42.670Z,0.40
2019-02-10T21:19:19.027Z,0.30
2019-02-10T21:21:58.642Z,0.30
2019-02-10T21:24:55.673Z,0.30
2019-02-10T21:27:41.297Z,0.40
2019-02-10T21:30:30.120Z,0.30
2019-02-10T21:33:13.769Z,0.40
2019-02-10T21:35:55.793Z,0.20
2019-02-10T21:38:45.315Z,0.23
2019-02-10T21:41:33.897Z,0.30
2019-02-10T21:44:19.451Z,0.30
2019-02-10T21:46:56.338Z,0.30
2019-02-10T21:49:26.835Z,0.40
2019-02-10T21:51:56.199Z,0.30
2019-02-10T21:54:25.333Z,0.30
2019-02-10T21:56:54.413Z,0.30
2019-02-10T21:59:24.021Z,0.30
2019-02-10T22:01:53.920Z,0.43
2019-02-10T22:04:23.352Z,0.27
2019-02-10T22:06:52.740Z,0.50
2019-02-10T22:09:21.835Z,0.30
2019-02-10T22:11:51.426Z,0.60
2019-02-10T22:14:20.529Z,0.30
2019-02-10T22:16:50.119Z,0.30
2019-02-10T22:19:19.183Z,0.20
2019-02-10T22:21:48.224Z,0.40
2019-02-10T22:24:17.557Z,0.40
2019-02-10T22:26:46.884Z,0.40
2019-02-10T22:29:16.248Z,0.30
2019-02-10T22:31:45.560Z,0.40
2019-02-10T22:34:14.875Z,0.70
2019-02-10T22:36:43.930Z,0.27
2019-02-10T22:39:13.040Z,0.43
2019-02-10T22:41:42.107Z,0.30
2019-02-10T22:44:11.579Z,0.40
2019-02-10T22:46:40.960Z,0.37
2019-02-10T22:49:10.296Z,0.33
2019-02-10T22:51:39.399Z,0.40
2019-02-10T22:54:08.865Z,0.30
2019-02-10T22:56:38.215Z,0.60
2019-02-10T22:59:07.338Z,0.40
2019-02-10T23:01:37.087Z,0.30
2019-02-10T23:04:06.170Z,0.30
2019-02-10T23:06:35.500Z,0.40
2019-02-10T23:09:08.277Z,0.40
2019-02-10T23:11:37.355Z,0.30
2019-02-10T23:14:06.864Z,0.30
2019-02-10T23:16:36.332Z,0.27
2019-02-10T23:19:05.899Z,0.20
2019-02-10T23:21:35.275Z,0.40
2019-02-10T23:24:04.595Z,0.30
2019-02-10T23:26:33.717Z,0.40
2019-02-10T23:29:02.851Z,0.30
2019-02-10T23:31:31.931Z,0.30
2019-02-10T23:34:01.020Z,0.30
2019-02-10T23:36:30.418Z,0.20
2019-02-10T23:38:59.807Z,0.30
2019-02-10T23:41:29.103Z,0.20
2019-02-10T23:43:58.512Z,0.20
2019-02-10T23:46:28.420Z,0.20
2019-02-10T23:48:57.722Z,0.30
2019-02-10T23:51:26.874Z,0.20
2019-02-10T23:53:56.232Z,0.20
2019-02-10T23:56:25.305Z,0.30
2019-02-10T23:58:54.336Z,0.33
